createdAt,value
2019-04-22T00:01:43.471Z,33.90
2019-04-22T00:04:23.499Z,33.80
2019-04-22T00:07:09.824Z,33.80
2019-04-22T00:09:56.441Z,33.80
2019-04-22T00:12:28.027Z,33.80
2019-04-22T00:14:52.825Z,33.80
2019-04-22T00:17:38.649Z,33.80
2019-04-22T00:20:04.305Z,33.80
2019-04-22T00:22:51.864Z,33.90
2019-04-22T00:25:17.686Z,33.90
2019-04-22T00:27:47.681Z,34.20
2019-04-22T00:30:32.429Z,34.20
2019-04-22T00:33:26.775Z,34.10
2019-04-22T00:36:04.411Z,34.20
2019-04-22T00:38:42.031Z,34.10
2019-04-22T00:41:16.685Z,34.40
2019-04-22T00:43:48.059Z,34.40
2019-04-22T00:46:22.643Z,34.50
2019-04-22T00:49:20.481Z,34.40
2019-04-22T00:51:28.594Z,34.50
2019-04-22T00:54:03.375Z,34.40
2019-04-22T00:56:35.752Z,34.20
2019-04-22T00:59:11.956Z,34.30
2019-04-22T01:01:45.309Z,34.60
2019-04-22T01:04:20.383Z,34.60
2019-04-22T01:06:51.313Z,34.60
2019-04-22T01:09:25.403Z,34.80
2019-04-22T01:12:04.683Z,34.80
2019-04-22T01:14:37.236Z,34.80
2019-04-22T01:17:06.408Z,35.00
2019-04-22T01:19:45.065Z,34.50
2019-04-22T01:22:16.344Z,34.60
2019-04-22T01:24:48.615Z,34.80
2019-04-22T01:27:16.309Z,34.80
2019-04-22T01:29:46.812Z,35.20
2019-04-22T01:32:14.345Z,35.30
2019-04-22T01:34:56.538Z,34.80
2019-04-22T01:37:35.486Z,35.00
2019-04-22T01:40:21.391Z,35.30
2019-04-22T01:42:53.647Z,35.50
2019-04-22T01:45:25.851Z,35.60
2019-04-22T01:48:00.520Z,35.80
2019-04-22T01:50:32.103Z,36.60
2019-04-22T01:53:06.007Z,36.10
2019-04-22T01:55:39.100Z,36.10
2019-04-22T01:58:09.455Z,36.10
2019-04-22T02:00:44.353Z,36.00
2019-04-22T02:03:17.682Z,35.90
2019-04-22T02:05:50.570Z,35.80
2019-04-22T02:08:31.378Z,35.90
2019-04-22T02:11:01.050Z,36.20
2019-04-22T02:13:36.733Z,36.50
2019-04-22T02:16:07.260Z,36.40
2019-04-22T02:18:46.350Z,37.20
2019-04-22T02:21:13.709Z,37.10
2019-04-22T02:26:29.916Z,36.40
2019-04-22T02:28:53.674Z,36.40
2019-04-22T02:34:13.730Z,36.80
2019-04-22T02:39:20.162Z,37.10
2019-04-22T02:41:50.865Z,37.30
2019-04-22T02:44:32.602Z,37.10
2019-04-22T02:49:31.566Z,37.10
2019-04-22T02:51:59.758Z,37.20
2019-04-22T02:57:24.054Z,37.20
2019-04-22T02:59:53.896Z,37.70
2019-04-22T03:02:49.074Z,38.00
2019-04-22T03:04:55.612Z,38.00
2019-04-22T03:07:24.922Z,37.90
2019-04-22T03:15:07.846Z,37.80
2019-04-22T03:18:01.317Z,37.80
2019-04-22T03:20:11.109Z,37.80
2019-04-22T03:22:55.650Z,38.10
2019-04-22T03:25:51.662Z,38.10
2019-04-22T03:27:56.321Z,38.10
2019-04-22T03:36:11.971Z,38.00
2019-04-22T03:38:12.082Z,37.90
2019-04-22T03:41:03.331Z,38.00
2019-04-22T03:43:24.008Z,38.10
2019-04-22T03:45:46.412Z,38.10
2019-04-22T03:48:26.371Z,38.30
2019-04-22T03:51:07.498Z,38.40
2019-04-22T03:53:33.348Z,38.70
2019-04-22T03:56:29.076Z,38.90
2019-04-22T03:58:52.771Z,39.00
2019-04-22T04:01:33.719Z,39.00
2019-04-22T04:04:01.021Z,38.90
2019-04-22T04:06:37.035Z,39.00
2019-04-22T04:08:59.239Z,39.20
2019-04-22T04:11:43.234Z,39.20
2019-04-22T04:14:12.324Z,39.80
2019-04-22T04:16:52.103Z,39.30
2019-04-22T04:29:45.731Z,39.70
2019-04-22T04:32:25.162Z,39.70
2019-04-22T04:37:38.913Z,39.80
2019-04-22T04:40:00.359Z,39.70
2019-04-22T04:45:10.917Z,39.40
2019-04-22T04:50:35.359Z,39.60
2019-04-22T04:55:17.582Z,39.50
2019-04-22T05:00:40.114Z,39.40
2019-04-22T05:02:53.128Z,39.60
2019-04-22T05:07:56.005Z,39.70
2019-04-22T05:10:44.815Z,39.90
2019-04-22T05:13:01.324Z,39.80
2019-04-22T05:16:10.587Z,39.80
2019-04-22T05:23:24.619Z,39.80
2019-04-22T05:25:55.148Z,39.70
2019-04-22T05:28:23.906Z,39.70
2019-04-22T05:31:00.517Z,39.90
2019-04-22T05:33:34.877Z,39.90
2019-04-22T05:36:07.598Z,39.50
2019-04-22T05:38:50.164Z,39.10
2019-04-22T05:41:17.972Z,39.00
2019-04-22T05:43:56.366Z,38.90
2019-04-22T05:46:26.171Z,38.80
2019-04-22T05:49:15.169Z,38.70
2019-04-22T05:51:31.319Z,38.50
2019-04-22T05:54:05.488Z,38.30
2019-04-22T05:56:37.175Z,38.40
2019-04-22T05:59:14.730Z,37.90
2019-04-22T06:04:23.624Z,37.20
2019-04-22T06:06:58.380Z,36.70
2019-04-22T06:09:33.517Z,36.40
2019-04-22T06:11:59.104Z,35.40
2019-04-22T06:14:39.374Z,34.90
2019-04-22T06:17:24.745Z,34.70
2019-04-22T06:19:50.850Z,34.70
2019-04-22T06:22:37.630Z,34.30
2019-04-22T06:25:00.962Z,33.30
2019-04-22T06:27:35.439Z,33.00
2019-04-22T06:30:09.727Z,32.20
2019-04-22T06:32:39.607Z,31.60
2019-04-22T06:35:23.367Z,30.10
2019-04-22T06:38:12.496Z,29.70
2019-04-22T06:40:26.884Z,27.90
2019-04-22T06:43:03.412Z,27.20
2019-04-22T06:48:10.866Z,27.30
2019-04-22T06:50:41.714Z,27.60
2019-04-22T06:53:17.569Z,26.30
2019-04-22T06:55:48.220Z,27.40
2019-04-22T06:58:20.055Z,27.00
2019-04-22T07:00:55.761Z,25.80
2019-04-22T07:06:07.387Z,23.90
2019-04-22T07:11:11.392Z,23.30
2019-04-22T07:13:57.438Z,22.60
2019-04-22T07:16:47.110Z,23.50
2019-04-22T07:18:56.710Z,22.90
2019-04-22T07:21:30.624Z,22.70
2019-04-22T07:24:22.769Z,21.70
2019-04-22T07:26:42.448Z,22.00
2019-04-22T07:29:17.180Z,21.70
2019-04-22T07:31:51.096Z,21.20
2019-04-22T07:34:26.496Z,21.40
2019-04-22T07:37:20.026Z,20.10
2019-04-22T07:39:35.549Z,21.00
2019-04-22T07:42:10.452Z,20.50
2019-04-22T07:44:43.307Z,19.60
2019-04-22T07:47:18.556Z,19.10
2019-04-22T07:52:24.570Z,19.40
2019-04-22T07:54:59.517Z,19.80
2019-04-22T08:00:09.023Z,18.60
2019-04-22T08:02:44.301Z,19.30
2019-04-22T08:05:12.501Z,17.90
2019-04-22T08:07:52.472Z,18.00
2019-04-22T08:10:34.404Z,18.90
2019-04-22T08:12:57.684Z,17.40
2019-04-22T08:15:34.955Z,17.50
2019-04-22T08:18:06.879Z,17.00
2019-04-22T08:25:47.591Z,17.10
2019-04-22T08:28:26.590Z,17.80
2019-04-22T08:33:35.418Z,16.90
2019-04-22T08:36:18.410Z,16.60
2019-04-22T08:38:39.510Z,16.00
2019-04-22T08:41:28.949Z,16.50
2019-04-22T08:46:34.142Z,15.30
2019-04-22T08:48:59.085Z,15.80
2019-04-22T08:51:49.367Z,15.60
2019-04-22T08:56:58.448Z,14.80
2019-04-22T09:01:52.000Z,14.30
2019-04-22T09:04:20.019Z,14.20
2019-04-22T09:07:20.955Z,13.40
2019-04-22T09:09:36.303Z,14.00
2019-04-22T09:12:08.409Z,14.70
2019-04-22T09:14:44.589Z,14.20
2019-04-22T09:17:17.408Z,14.60
2019-04-22T09:19:53.283Z,14.50
2019-04-22T09:22:21.977Z,15.10
2019-04-22T09:24:56.027Z,14.60
2019-04-22T09:30:10.486Z,14.00
2019-04-22T09:35:09.947Z,13.90
2019-04-22T09:40:22.408Z,13.20
2019-04-22T09:42:56.132Z,12.40
2019-04-22T09:45:27.473Z,13.30
2019-04-22T09:48:08.679Z,12.80
2019-04-22T09:50:43.114Z,12.20
2019-04-22T09:53:18.215Z,11.50
2019-04-22T09:55:45.118Z,10.70
2019-04-22T09:58:20.725Z,11.00
2019-04-22T10:01:33.277Z,10.90
2019-04-22T10:04:00.991Z,11.00
2019-04-22T10:06:35.333Z,9.60
2019-04-22T10:11:56.353Z,10.30
2019-04-22T10:14:23.902Z,10.70
2019-04-22T10:16:47.888Z,11.50
2019-04-22T10:19:29.997Z,11.60
2019-04-22T10:22:05.240Z,11.30
2019-04-22T10:24:38.821Z,12.00
2019-04-22T10:27:18.627Z,11.30
2019-04-22T10:29:54.053Z,12.00
2019-04-22T10:32:27.097Z,12.10
2019-04-22T10:34:48.571Z,13.20
2019-04-22T10:37:18.346Z,13.00
2019-04-22T10:39:56.264Z,11.40
2019-04-22T10:42:25.373Z,11.30
2019-04-22T10:44:57.380Z,10.60
2019-04-22T10:47:29.883Z,10.70
2019-04-22T10:50:02.787Z,11.40
2019-04-22T10:52:35.191Z,12.60
2019-04-22T10:55:09.973Z,12.00
2019-04-22T10:57:42.255Z,12.00
2019-04-22T11:00:15.626Z,12.20
2019-04-22T11:02:47.872Z,11.90
2019-04-22T11:05:20.176Z,10.80
2019-04-22T11:07:57.936Z,11.00
2019-04-22T11:10:36.764Z,11.80
2019-04-22T11:13:00.941Z,11.00
2019-04-22T11:15:33.000Z,11.60
2019-04-22T11:18:07.422Z,11.60
2019-04-22T11:20:41.821Z,10.80
2019-04-22T11:23:16.514Z,10.90
2019-04-22T11:25:50.039Z,10.30
2019-04-22T11:28:23.374Z,11.60
2019-04-22T11:30:56.361Z,11.40
2019-04-22T11:33:30.423Z,11.40
2019-04-22T11:36:03.863Z,11.30
2019-04-22T11:38:38.949Z,11.10
2019-04-22T11:41:09.758Z,10.50
2019-04-22T11:43:42.985Z,10.50
2019-04-22T11:46:15.696Z,10.90
2019-04-22T11:48:49.796Z,10.30
2019-04-22T11:51:22.117Z,10.90
2019-04-22T11:53:54.745Z,11.30
2019-04-22T11:56:27.191Z,11.00
2019-04-22T11:59:00.657Z,10.50
2019-04-22T12:01:33.128Z,11.30
2019-04-22T12:04:05.507Z,11.80
2019-04-22T12:06:37.929Z,9.90
2019-04-22T12:09:12.815Z,10.10
2019-04-22T12:11:44.650Z,10.20
2019-04-22T12:14:18.214Z,10.50
2019-04-22T12:16:50.005Z,9.80
2019-04-22T12:19:23.217Z,10.20
2019-04-22T12:21:55.250Z,9.10
2019-04-22T12:24:28.097Z,9.90
2019-04-22T12:27:02.145Z,9.10
2019-04-22T12:29:35.144Z,9.30
2019-04-22T12:32:07.619Z,9.60
2019-04-22T12:34:39.739Z,9.90
2019-04-22T12:37:14.838Z,10.30
2019-04-22T12:39:47.464Z,9.20
2019-04-22T12:42:19.698Z,8.70
2019-04-22T12:44:51.573Z,8.40
2019-04-22T12:47:24.423Z,8.50
2019-04-22T12:50:08.970Z,9.20
2019-04-22T12:52:37.350Z,9.10
2019-04-22T12:55:03.901Z,9.40
2019-04-22T12:57:36.834Z,9.20
2019-04-22T13:00:13.585Z,8.90
2019-04-22T13:02:45.542Z,8.20
2019-04-22T13:05:20.182Z,8.30
2019-04-22T13:07:53.677Z,7.90
2019-04-22T13:10:33.660Z,7.70
2019-04-22T13:13:00.860Z,7.50
2019-04-22T13:15:33.029Z,6.90
2019-04-22T13:18:14.822Z,7.30
2019-04-22T13:20:38.860Z,6.80
2019-04-22T13:23:11.660Z,7.50
2019-04-22T13:25:44.880Z,7.40
2019-04-22T13:28:18.641Z,6.60
2019-04-22T13:30:52.745Z,6.90
2019-04-22T13:33:25.095Z,7.00
2019-04-22T13:35:57.789Z,6.60
2019-04-22T13:38:31.137Z,5.50
2019-04-22T13:41:14.840Z,5.20
2019-04-22T13:43:38.729Z,5.50
2019-04-22T13:46:12.346Z,5.90
2019-04-22T13:49:09.680Z,6.10
2019-04-22T13:52:02.386Z,6.10
2019-04-22T13:56:50.612Z,7.10
2019-04-22T13:59:11.294Z,7.70
2019-04-22T14:01:50.687Z,6.60
2019-04-22T14:04:32.657Z,6.50
2019-04-22T14:07:05.195Z,7.10
2019-04-22T14:09:38.207Z,7.50
2019-04-22T14:12:13.662Z,7.20
2019-04-22T14:14:45.835Z,6.80
2019-04-22T14:17:18.797Z,7.00
2019-04-22T14:19:50.918Z,7.30
2019-04-22T14:22:22.775Z,7.40
2019-04-22T14:24:54.885Z,6.00
2019-04-22T14:27:38.268Z,5.40
2019-04-22T14:30:01.990Z,5.70
2019-04-22T14:32:36.053Z,5.70
2019-04-22T14:35:09.230Z,5.80
2019-04-22T14:37:42.448Z,6.10
2019-04-22T14:40:18.766Z,5.60
2019-04-22T14:43:09.910Z,5.40
2019-04-22T14:46:01.056Z,5.50
2019-04-22T14:48:19.940Z,5.50
2019-04-22T14:50:51.637Z,4.70
2019-04-22T14:53:27.655Z,5.60
2019-04-22T14:55:40.386Z,5.20
2019-04-22T14:58:13.185Z,5.30
2019-04-22T15:00:45.945Z,5.40
2019-04-22T15:03:19.587Z,6.30
2019-04-22T15:05:52.317Z,6.20
2019-04-22T15:08:24.871Z,6.50
2019-04-22T15:10:58.256Z,6.50
2019-04-22T15:13:31.568Z,6.10
2019-04-22T15:16:23.794Z,6.40
2019-04-22T15:19:22.033Z,6.60
2019-04-22T15:21:54.638Z,6.90
2019-04-22T15:24:27.517Z,7.40
2019-04-22T15:27:00.860Z,8.10
2019-04-22T15:29:33.674Z,7.80
2019-04-22T15:32:07.341Z,7.90
2019-04-22T15:34:39.596Z,8.40
2019-04-22T15:37:11.988Z,8.70
2019-04-22T15:39:45.605Z,8.30
2019-04-22T15:42:27.632Z,7.00
2019-04-22T15:44:53.788Z,7.80
2019-04-22T15:47:27.028Z,7.30
2019-04-22T15:50:00.256Z,7.20
2019-04-22T15:52:41.967Z,7.40
2019-04-22T15:55:09.025Z,7.50
2019-04-22T15:57:42.048Z,7.30
2019-04-22T16:00:29.426Z,7.30
2019-04-22T16:02:49.889Z,6.70
2019-04-22T16:05:22.697Z,7.10
2019-04-22T16:07:55.175Z,7.40
2019-04-22T16:10:28.048Z,7.70
2019-04-22T16:13:09.389Z,8.50
2019-04-22T16:15:36.351Z,8.30
2019-04-22T16:18:09.421Z,8.90
2019-04-22T16:20:43.913Z,8.60
2019-04-22T16:23:40.436Z,8.20
2019-04-22T16:26:18.005Z,8.50
2019-04-22T16:28:52.739Z,8.30
2019-04-22T16:31:25.101Z,8.20
2019-04-22T16:33:58.417Z,8.30
2019-04-22T16:36:31.066Z,8.10
2019-04-22T16:39:04.703Z,7.90
2019-04-22T16:41:37.136Z,8.10
2019-04-22T16:44:09.539Z,7.70
2019-04-22T16:46:43.313Z,7.30
2019-04-22T16:49:15.971Z,7.20
2019-04-22T16:51:49.947Z,7.60
2019-04-22T16:54:22.234Z,7.50
2019-04-22T16:56:54.361Z,7.50
2019-04-22T16:59:26.763Z,7.50
2019-04-22T17:02:20.639Z,8.00
2019-04-22T17:04:59.647Z,8.10
2019-04-22T17:07:31.981Z,8.80
2019-04-22T17:10:04.211Z,8.90
2019-04-22T17:12:44.331Z,9.70
2019-04-22T17:15:12.709Z,9.90
2019-04-22T17:17:45.295Z,10.10
2019-04-22T17:20:17.442Z,10.00
2019-04-22T17:22:49.543Z,10.10
2019-04-22T17:25:22.476Z,10.30
2019-04-22T17:27:55.257Z,10.30
2019-04-22T17:30:29.027Z,11.00
2019-04-22T17:33:03.153Z,11.30
2019-04-22T17:35:36.017Z,11.60
2019-04-22T17:38:16.350Z,11.90
2019-04-22T17:40:55.867Z,12.70
2019-04-22T17:43:50.570Z,12.50
2019-04-22T17:46:19.620Z,12.50
2019-04-22T17:48:57.646Z,12.80
2019-04-22T17:51:38.183Z,12.70
2019-04-22T17:54:12.138Z,13.00
2019-04-22T17:56:43.649Z,13.20
2019-04-22T17:59:20.386Z,13.20
2019-04-22T18:01:43.875Z,13.30
2019-04-22T18:04:04.818Z,13.30
2019-04-22T18:07:03.840Z,13.60
2019-04-22T18:10:06.653Z,13.50
2019-04-22T18:12:13.021Z,13.80
2019-04-22T18:14:59.831Z,14.20
2019-04-22T18:17:17.270Z,14.10
2019-04-22T18:19:46.257Z,14.10
2019-04-22T18:22:16.429Z,14.30
2019-04-22T18:24:50.432Z,14.50
2019-04-22T18:27:43.818Z,14.60
2019-04-22T18:29:55.805Z,14.70
2019-04-22T18:32:30.776Z,15.00
2019-04-22T18:35:11.895Z,15.20
2019-04-22T18:37:43.752Z,15.30
2019-04-22T18:40:18.251Z,15.50
2019-04-22T18:42:56.551Z,15.80
2019-04-22T18:45:45.468Z,15.90
2019-04-22T18:47:55.461Z,16.10
2019-04-22T18:50:52.837Z,16.40
2019-04-22T18:53:44.620Z,16.60
2019-04-22T18:56:31.510Z,17.10
2019-04-22T18:58:51.325Z,17.70
2019-04-22T19:01:13.208Z,18.10
2019-04-22T19:03:55.160Z,18.60
2019-04-22T19:06:56.189Z,19.10
2019-04-22T19:09:16.716Z,19.20
2019-04-22T19:12:03.148Z,19.50
2019-04-22T19:14:25.320Z,20.20
2019-04-22T19:17:07.365Z,20.70
2019-04-22T19:21:57.530Z,21.30
2019-04-22T19:24:37.209Z,21.40
2019-04-22T19:27:09.117Z,21.90
2019-04-22T19:29:49.212Z,22.80
2019-04-22T19:32:22.425Z,22.90
2019-04-22T19:34:48.195Z,23.30
2019-04-22T19:37:25.788Z,23.20
2019-04-22T19:40:10.482Z,23.40
2019-04-22T19:45:08.856Z,24.00
2019-04-22T19:47:43.564Z,24.40
2019-04-22T19:50:16.517Z,24.70
2019-04-22T19:52:56.666Z,24.80
2019-04-22T19:55:25.400Z,25.30
2019-04-22T19:57:54.357Z,25.70
2019-04-22T20:00:38.675Z,25.40
2019-04-22T20:03:46.376Z,25.60
2019-04-22T20:06:27.335Z,25.80
2019-04-22T20:08:59.716Z,25.90
2019-04-22T20:11:34.209Z,26.00
2019-04-22T20:14:12.080Z,25.50
2019-04-22T20:16:41.325Z,25.90
2019-04-22T20:19:21.936Z,25.70
2019-04-22T20:21:51.241Z,25.60
2019-04-22T20:24:12.001Z,25.40
2019-04-22T20:27:08.913Z,25.60
2019-04-22T20:29:37.330Z,25.70
2019-04-22T20:32:05.524Z,25.70
2019-04-22T20:34:47.445Z,25.50
2019-04-22T20:37:18.003Z,25.30
2019-04-22T20:39:48.201Z,26.00
2019-04-22T20:42:31.338Z,25.10
2019-04-22T20:44:57.139Z,24.90
2019-04-22T20:47:22.036Z,25.00
2019-04-22T20:50:07.997Z,24.70
2019-04-22T20:52:38.673Z,25.10
2019-04-22T20:55:07.768Z,24.80
2019-04-22T20:57:49.519Z,24.60
2019-04-22T21:00:15.169Z,24.70
2019-04-22T21:02:45.500Z,24.70
2019-04-22T21:05:20.830Z,24.90
2019-04-22T21:08:02.481Z,25.00
2019-04-22T21:10:30.457Z,24.90
2019-04-22T21:13:03.410Z,25.10
2019-04-22T21:15:45.618Z,25.10
2019-04-22T21:18:13.387Z,25.00
2019-04-22T21:20:51.711Z,25.80
2019-04-22T21:23:21.652Z,25.30
2019-04-22T21:26:00.922Z,25.20
2019-04-22T21:28:36.713Z,25.20
2019-04-22T21:31:05.835Z,25.20
2019-04-22T21:33:40.393Z,25.90
2019-04-22T21:36:20.637Z,25.30
2019-04-22T21:38:43.663Z,25.30
2019-04-22T21:41:18.977Z,25.30
2019-04-22T21:43:52.670Z,25.30
2019-04-22T21:46:32.404Z,25.60
2019-04-22T21:48:59.938Z,25.80
2019-04-22T21:51:39.742Z,25.90
2019-04-22T21:54:16.873Z,25.80
2019-04-22T21:57:18.885Z,26.10
2019-04-22T21:59:40.645Z,26.30
2019-04-22T22:02:25.582Z,26.90
2019-04-22T22:04:47.282Z,27.00
2019-04-22T22:07:13.596Z,26.90
2019-04-22T22:09:59.655Z,27.50
2019-04-22T22:12:36.183Z,27.10
2019-04-22T22:15:07.140Z,26.90
2019-04-22T22:17:40.074Z,27.10
2019-04-22T22:20:09.976Z,27.10
2019-04-22T22:22:51.971Z,27.10
2019-04-22T22:25:26.546Z,27.00
2019-04-22T22:27:58.656Z,27.20
2019-04-22T22:33:05.899Z,27.90
2019-04-22T22:35:39.346Z,27.70
2019-04-22T22:38:13.355Z,28.00
2019-04-22T22:40:28.600Z,27.90
2019-04-22T22:43:11.749Z,27.90
2019-04-22T22:45:43.806Z,28.00
2019-04-22T22:48:38.740Z,28.00
2019-04-22T22:50:58.970Z,28.00
2019-04-22T22:53:40.136Z,28.10
2019-04-22T22:56:14.303Z,28.30
2019-04-22T22:58:50.591Z,28.60
2019-04-22T23:01:24.206Z,28.40
2019-04-22T23:03:57.702Z,28.60
2019-04-22T23:06:32.795Z,28.90
2019-04-22T23:09:05.683Z,28.90
2019-04-22T23:11:53.778Z,29.10
2019-04-22T23:14:07.833Z,28.80
2019-04-22T23:16:31.454Z,29.20
2019-04-22T23:19:02.294Z,29.40
2019-04-22T23:21:43.346Z,29.70
2019-04-22T23:24:37.763Z,30.10
2019-04-22T23:27:10.420Z,30.10
2019-04-22T23:29:55.592Z,30.30
2019-04-22T23:32:31.811Z,30.60
2019-04-22T23:35:16.743Z,31.00
2019-04-22T23:37:50.027Z,31.20
2019-04-22T23:40:32.846Z,31.40
2019-04-22T23:42:58.694Z,31.30
2019-04-22T23:45:42.909Z,31.50
2019-04-22T23:48:08.326Z,31.70
2019-04-22T23:50:47.277Z,32.00
2019-04-22T23:53:33.130Z,32.20
2019-04-22T23:56:13.536Z,32.20
2019-04-22T23:58:53.072Z,32.30
